Time;durP1;ratioP1;P1;durP2;ratioP2;P2;SDS_P1;SDS_P2;PMS_P1;PMS_P2;Temp;Humidity;BMP_temperature;BMP_pressure;BME280_temperature;BME280_humidity;BME280_pressure;Samples;Min_cycle;Max_cycle;Signal;HPM_P1;HPM_P2
2023/03/08 00:01:14;;;;;;;24.20;12.55;;;-0.10;99.90;;;-1.82;100.00;99046.56;5021754;28;20035;-81
2023/03/08 00:03:41;;;;;;;25.95;13.23;;;-0.10;99.90;;;-1.76;100.00;99052.03;5026291;28;20106;-81
2023/03/08 00:06:10;;;;;;;21.58;11.98;;;0.00;99.90;;;-1.75;100.00;99064.38;4999223;28;20061;-82
2023/03/08 00:08:36;;;;;;;22.10;12.00;;;0.00;99.90;;;-1.76;100.00;99045.84;4998712;28;20106;-82
2023/03/08 00:11:11;;;;;;;20.27;11.18;;;0.10;99.90;;;-1.60;100.00;99066.31;4996584;28;20041;-82
2023/03/08 00:13:38;;;;;;;21.10;11.60;;;0.10;99.90;;;-1.67;100.00;99055.50;4993507;28;20046;-81
2023/03/08 00:16:07;;;;;;;21.67;11.93;;;0.10;99.90;;;-1.58;100.00;99071.50;4991661;28;20359;-79
2023/03/08 00:18:35;;;;;;;21.80;12.20;;;0.20;99.90;;;-1.60;100.00;99074.34;4996807;28;20038;-80
2023/03/08 00:21:11;;;;;;;21.67;10.25;;;0.20;99.90;;;-1.54;100.00;99070.13;4976361;28;20030;-79
2023/03/08 00:23:37;;;;;;;18.63;11.02;;;0.20;99.90;;;-1.49;100.00;99083.81;4985018;28;20038;-79
2023/03/08 00:26:04;;;;;;;20.40;10.63;;;0.30;99.90;;;-1.52;100.00;99082.31;4989763;28;20034;-79
2023/03/08 00:28:31;;;;;;;20.80;11.02;;;0.30;99.90;;;-1.48;100.00;99085.47;4968820;28;20047;-78
2023/03/08 00:31:00;;;;;;;17.30;9.68;;;0.30;99.90;;;-1.37;100.00;99093.09;4993587;28;20065;-79
2023/03/08 00:33:27;;;;;;;19.38;9.93;;;0.40;99.90;;;-1.37;100.00;99089.59;5008765;28;20375;-79
2023/03/08 00:36:07;;;;;;;15.50;9.30;;;0.40;99.90;;;-1.31;100.00;99103.09;4995570;28;20096;-80
2023/03/08 00:38:36;;;;;;;16.85;8.50;;;0.50;99.90;;;-1.22;100.00;99100.34;4997472;28;20113;-79
2023/03/08 00:41:03;;;;;;;14.02;7.88;;;0.50;99.90;;;-1.22;100.00;99100.34;4994872;28;20034;-80
2023/03/08 00:43:31;;;;;;;14.35;8.07;;;0.60;99.90;;;-1.22;100.00;99103.03;4997187;28;20038;-79
2023/03/08 00:45:57;;;;;;;14.88;8.55;;;0.60;99.90;;;-1.24;100.00;99102.38;4995941;28;20078;-80
2023/03/08 00:48:23;;;;;;;12.32;7.60;;;0.50;99.90;;;-1.33;100.00;99094.41;4995473;28;20108;-80
2023/03/08 00:50:51;;;;;;;14.98;7.10;;;0.50;99.90;;;-1.28;100.00;99101.09;4980115;28;20074;-79
2023/03/08 00:53:17;;;;;;;11.73;7.03;;;0.50;99.90;;;-1.26;100.00;99104.41;4999748;28;20048;-79
2023/03/08 00:55:55;;;;;;;12.93;7.20;;;0.50;99.90;;;-1.24;100.00;99100.53;5001736;28;20044;-81
2023/03/08 00:58:23;;;;;;;9.32;6.03;;;0.50;99.90;;;-1.19;100.00;99113.38;5001864;28;20142;-79
2023/03/08 01:00:49;;;;;;;9.38;5.90;;;0.50;99.90;;;-1.21;100.00;99105.53;5002192;28;20034;-80
2023/03/08 01:03:16;;;;;;;12.27;6.03;;;0.60;99.90;;;-1.20;100.00;99112.53;5002378;28;20060;-79
2023/03/08 01:05:47;;;;;;;12.80;6.80;;;0.60;99.90;;;-1.25;100.00;99119.44;5008251;28;20038;-83
2023/03/08 01:08:15;;;;;;;11.30;5.97;;;0.60;99.90;;;-1.27;100.00;99114.25;5001223;28;20034;-79
2023/03/08 01:10:51;;;;;;;16.23;5.85;;;0.50;99.90;;;-1.23;100.00;99114.75;5005294;28;20039;-81
2023/03/08 01:13:19;;;;;;;9.90;5.10;;;0.50;99.90;;;-1.26;100.00;99112.44;5008006;28;20035;-80
2023/03/08 01:15:46;;;;;;;9.20;5.35;;;0.50;99.90;;;-1.29;100.00;99113.59;4998843;28;20459;-80
2023/03/08 01:18:12;;;;;;;10.68;5.28;;;0.50;99.90;;;-1.37;100.00;99109.13;5006853;28;20125;-81
2023/03/08 01:20:37;;;;;;;8.30;5.30;;;0.40;99.90;;;-1.38;100.00;99104.78;4991625;28;20130;-80
2023/03/08 01:23:03;;;;;;;10.07;4.88;;;0.40;99.90;;;-1.40;100.00;99101.47;4991103;28;20066;-80
2023/03/08 01:25:30;;;;;;;8.82;5.18;;;0.40;99.90;;;-1.46;100.00;99088.81;5007078;28;20049;-79
2023/03/08 01:27:56;;;;;;;10.60;5.32;;;0.40;99.90;;;-1.42;100.00;99102.66;4987223;28;20375;-79
2023/03/08 01:30:22;;;;;;;10.55;4.97;;;0.40;99.90;;;-1.54;100.00;99086.19;4995495;28;20088;-80
2023/03/08 01:32:48;;;;;;;7.78;4.45;;;0.30;99.90;;;-1.52;100.00;99093.00;5000184;28;20104;-78
2023/03/08 01:35:14;;;;;;;8.23;4.63;;;0.20;99.90;;;-1.58;100.00;99093.72;4995496;28;20037;-78
2023/03/08 01:37:40;;;;;;;9.40;4.45;;;0.20;99.90;;;-1.65;100.00;99085.56;4994699;28;20038;-78
2023/03/08 01:40:08;;;;;;;7.35;4.03;;;0.10;99.90;;;-1.71;100.00;99077.44;4977304;28;20030;-80
2023/03/08 01:42:36;;;;;;;8.63;4.50;;;0.10;99.90;;;-1.67;100.00;99089.44;5008893;28;20050;-79
2023/03/08 01:45:25;;;;;;;12.57;4.93;;;0.10;99.90;;;-1.57;100.00;99090.03;4993836;28;20085;-79
2023/03/08 01:47:51;;;;;;;7.90;4.88;;;0.10;99.90;;;-1.47;100.00;99084.47;4977393;28;20034;-79
2023/03/08 01:50:23;;;;;;;9.45;5.07;;;0.20;99.90;;;-1.49;100.00;99089.16;5010144;28;20454;-79
2023/03/08 01:52:53;;;;;;;9.43;4.60;;;0.30;99.90;;;-1.50;100.00;99084.81;4993369;28;20065;-79
2023/03/08 01:55:20;;;;;;;7.72;4.38;;;0.30;99.90;;;-1.52;100.00;99081.50;4992505;28;20034;-79
2023/03/08 01:57:52;;;;;;;6.97;4.30;;;0.30;99.90;;;-1.52;100.00;99081.50;4975378;28;20038;-78
2023/03/08 02:00:25;;;;;;;9.75;4.78;;;0.20;99.90;;;-1.53;100.00;99080.66;4992774;28;20055;-79
2023/03/08 02:03:03;;;;;;;8.75;4.68;;;0.20;99.90;;;-1.58;100.00;99075.00;4992127;28;20058;-78
2023/03/08 02:05:30;;;;;;;8.52;5.03;;;0.20;99.90;;;-1.64;100.00;99079.19;5008426;28;20084;-80
2023/03/08 02:08:03;;;;;;;11.40;5.30;;;0.10;99.90;;;-1.70;100.00;99077.25;4992695;28;20502;-80
2023/03/08 02:10:35;;;;;;;9.05;5.03;;;0.10;99.90;;;-1.70;100.00;99074.56;4991231;28;20030;-79
2023/03/08 02:13:04;;;;;;;;;;;0.10;99.90;;;-1.68;100.00;99069.88;4976845;28;20034;-80
2023/03/08 02:15:30;;;;;;;9.30;5.15;;;0.10;99.90;;;-1.78;100.00;99061.25;4986308;28;20281;-79
2023/03/08 02:17:57;;;;;;;10.05;5.45;;;0.10;99.90;;;-1.77;100.00;99070.94;4991817;28;20121;-79
2023/03/08 02:20:32;;;;;;;9.15;5.07;;;0.00;99.90;;;-1.96;100.00;99054.31;4988624;28;20125;-79
2023/03/08 02:23:19;;;;;;;9.35;5.35;;;-0.10;99.90;;;-2.02;100.00;99066.53;5009687;28;20184;-79
2023/03/08 02:26:11;;;;;;;9.00;5.35;;;-0.20;99.90;;;-2.14;100.00;99062.56;5004320;28;20046;-79
2023/03/08 02:28:38;;;;;;;9.90;5.18;;;-0.30;99.90;;;-2.23;100.00;99064.44;4989184;28;20055;-79
2023/03/08 02:31:04;;;;;;;9.45;5.70;;;-0.40;99.90;;;-2.31;100.00;99062.63;4992116;28;20781;-79
2023/03/08 02:33:31;;;;;;;11.35;6.20;;;-0.50;99.90;;;-2.36;100.00;99067.66;4992626;28;20035;-79
2023/03/08 02:35:57;;;;;;;12.27;5.85;;;-0.50;99.90;;;-2.42;100.00;99063.00;4992371;28;20062;-79
2023/03/08 02:38:23;;;;;;;7.85;5.40;;;-0.60;99.90;;;-2.49;100.00;99059.38;4991494;28;20078;-79
2023/03/08 02:40:52;;;;;;;12.23;6.20;;;-0.70;99.90;;;-2.56;100.00;99061.88;4992974;28;20073;-79
2023/03/08 02:43:19;;;;;;;9.38;5.38;;;-0.70;99.90;;;-2.63;100.00;99059.03;4992791;28;20045;-79
2023/03/08 02:45:44;;;;;;;11.90;5.70;;;-0.80;99.90;;;-2.58;100.00;99055.03;4992948;28;20037;-79
2023/03/08 02:48:10;;;;;;;12.40;5.45;;;-0.80;99.90;;;-2.57;100.00;99052.19;4991993;28;20125;-78
2023/03/08 02:50:36;;;;;;;11.13;5.53;;;-0.80;99.90;;;-2.56;100.00;99048.53;4991545;28;20077;-78
2023/03/08 02:53:04;;;;;;;11.30;5.90;;;-0.80;99.90;;;-2.64;100.00;99038.69;4990586;28;20089;-79
2023/03/08 02:55:34;;;;;;;12.05;5.40;;;-0.90;99.90;;;-2.80;100.00;99034.22;4992106;28;20031;-79
2023/03/08 02:58:07;;;;;;;10.30;5.22;;;-1.00;99.90;;;-2.76;100.00;99037.38;4991960;28;20026;-79
2023/03/08 03:00:33;;;;;;;11.48;5.53;;;-1.10;99.90;;;-2.75;100.00;99037.19;4986440;28;20026;-79
2023/03/08 03:03:00;;;;;;;11.93;5.43;;;-1.10;99.90;;;-2.77;100.00;99036.53;5003891;28;20042;-79
2023/03/08 03:05:27;;;;;;;7.57;4.75;;;-1.10;99.90;;;-2.79;100.00;99037.69;5005880;28;20156;-79
2023/03/08 03:07:55;;;;;;;11.30;5.40;;;-1.10;99.90;;;-2.79;100.00;99038.56;4984807;28;20030;-78
2023/03/08 03:10:21;;;;;;;9.85;5.15;;;-1.10;99.90;;;-2.82;100.00;99038.91;4991324;28;20130;-78
2023/03/08 03:12:47;;;;;;;11.65;5.85;;;-1.10;99.90;;;-2.84;100.00;99035.56;4990918;28;20042;-78
2023/03/08 03:15:17;;;;;;;10.55;5.85;;;-1.10;99.90;;;-2.90;100.00;99038.91;4991707;28;20034;-80
2023/03/08 03:17:45;;;;;;;10.30;5.97;;;-1.20;99.90;;;-2.87;100.00;99035.06;4975490;28;20039;-78
2023/03/08 03:20:12;;;;;;;13.05;5.57;;;-1.20;99.90;;;-2.81;100.00;99045.06;4991558;28;20375;-78
2023/03/08 03:22:37;;;;;;;9.75;5.68;;;-1.10;99.90;;;-2.80;100.00;99038.72;4992069;28;20477;-78
2023/03/08 03:25:06;;;;;;;14.63;6.03;;;-1.10;99.90;;;-2.71;100.00;99051.06;5006539;28;20030;-78
2023/03/08 03:27:32;;;;;;;13.82;6.63;;;-1.00;99.90;;;-2.72;100.00;99044.06;4991109;28;20038;-79
2023/03/08 03:29:58;;;;;;;14.43;6.43;;;-1.00;99.90;;;-2.69;100.00;99048.19;4992491;28;20100;-81
2023/03/08 03:32:24;;;;;;;13.27;6.72;;;-1.00;99.90;;;-2.69;100.00;99045.53;4990982;28;20057;-81
2023/03/08 03:34:51;;;;;;;12.77;6.80;;;-1.00;99.90;;;-2.70;100.00;99039.38;5006607;28;20035;-80
2023/03/08 03:37:19;;;;;;;11.55;7.05;;;-1.00;99.90;;;-2.69;100.00;99045.53;4990303;28;20117;-80
2023/03/08 03:39:45;;;;;;;13.40;7.82;;;-1.00;99.90;;;-2.78;100.00;99034.88;4991933;28;20137;-81
2023/03/08 03:42:14;;;;;;;12.68;7.05;;;-1.00;99.90;;;-2.82;100.00;99038.91;4990572;28;20465;-81
2023/03/08 03:44:46;;;;;;;13.23;7.07;;;-1.10;99.90;;;-2.82;100.00;99028.22;5003446;28;20030;-80
2023/03/08 03:47:16;;;;;;;17.67;6.63;;;-1.10;99.90;;;-2.81;100.00;99029.03;5004594;28;20038;-80
2023/03/08 03:49:42;;;;;;;13.35;7.13;;;-1.10;99.90;;;-2.80;100.00;99031.53;4989728;28;20446;-80
2023/03/08 03:52:08;;;;;;;15.18;7.43;;;-1.00;99.90;;;-2.77;100.00;99038.41;5006643;28;20068;-80
2023/03/08 03:54:40;;;;;;;12.80;7.07;;;-1.00;99.90;;;-2.75;100.00;99039.88;4990366;28;20022;-80
2023/03/08 03:57:06;;;;;;;14.23;7.68;;;-1.10;99.90;;;-2.73;100.00;99034.38;5007001;28;20030;-80
2023/03/08 03:59:35;;;;;;;14.93;7.78;;;-1.00;99.90;;;-2.76;100.00;99032.88;4990244;28;20112;-79
2023/03/08 04:02:02;;;;;;;14.88;7.80;;;-1.00;99.90;;;-2.79;100.00;99038.56;4974297;28;20390;-80
2023/03/08 04:04:36;;;;;;;14.88;7.78;;;-1.00;99.90;;;-2.81;100.00;99039.72;5006750;28;20038;-79
2023/03/08 04:07:02;;;;;;;18.73;7.47;;;-1.10;99.90;;;-2.76;100.00;99032.88;4994980;28;20486;-81
2023/03/08 04:09:34;;;;;;;14.95;7.97;;;-1.00;99.90;;;-2.75;100.00;99031.88;4990125;28;20050;-81
2023/03/08 04:12:08;;;;;;;14.23;7.85;;;-1.00;99.90;;;-2.73;100.00;99031.72;4984776;28;20557;-81
2023/03/08 04:14:35;;;;;;;18.13;9.20;;;-1.00;99.90;;;-2.81;100.00;99023.69;4971624;28;20089;-81
2023/03/08 04:17:02;;;;;;;16.05;7.93;;;-1.10;99.90;;;-2.81;100.00;99029.03;4990177;28;20046;-81
2023/03/08 04:19:36;;;;;;;15.93;8.93;;;-1.10;99.90;;;-2.84;100.00;99024.88;4969586;28;20045;-81
2023/03/08 04:22:02;;;;;;;20.30;9.57;;;-1.10;99.90;;;-2.88;100.00;99028.91;4989541;28;20070;-80
2023/03/08 04:24:35;;;;;;;20.88;10.02;;;-1.10;99.90;;;-2.85;100.00;99033.91;4970302;28;20038;-81
2023/03/08 04:27:05;;;;;;;18.92;9.13;;;-1.10;99.90;;;-2.84;100.00;99032.91;4988119;28;20034;-81
2023/03/08 04:29:31;;;;;;;19.50;10.38;;;-1.10;99.90;;;-2.83;100.00;99042.56;4973857;28;20034;-80
2023/03/08 04:31:59;;;;;;;19.98;10.38;;;-1.10;99.90;;;-2.88;100.00;99044.91;4993718;28;20034;-80
2023/03/08 04:34:28;;;;;;;19.75;10.10;;;-1.10;99.90;;;-2.90;100.00;99041.59;5005593;28;20486;-81
2023/03/08 04:36:54;;;;;;;21.02;10.70;;;-1.10;99.90;;;-2.97;100.00;99032.56;4994581;28;20043;-81
2023/03/08 04:39:20;;;;;;;19.20;9.70;;;-1.10;99.90;;;-3.07;100.00;99017.56;4992330;28;20882;-80
2023/03/08 04:41:46;;;;;;;20.73;10.15;;;-1.20;99.90;;;-2.97;100.00;99029.91;4991150;28;20658;-80
2023/03/08 04:44:23;;;;;;;18.17;9.50;;;-1.20;99.90;;;-2.98;100.00;99020.22;5006822;28;20034;-80
2023/03/08 04:46:51;;;;;;;21.30;10.38;;;-1.20;99.90;;;-2.98;100.00;99033.56;4995144;28;20415;-80
2023/03/08 04:49:24;;;;;;;22.42;10.48;;;-1.30;99.90;;;-2.99;100.00;99029.22;4992249;28;20053;-78
2023/03/08 04:51:55;;;;;;;22.90;10.45;;;-1.20;99.90;;;-2.98;100.00;99030.91;4992014;28;20046;-80
2023/03/08 04:54:21;;;;;;;19.92;9.90;;;-1.20;99.90;;;-2.95;100.00;99025.22;5004577;28;20031;-80
2023/03/08 04:56:53;;;;;;;22.88;9.95;;;-1.20;99.90;;;-2.89;100.00;99016.56;4973513;28;20509;-81
2023/03/08 04:59:23;;;;;;;20.75;9.55;;;-1.20;99.90;;;-2.95;100.00;99012.72;4983183;28;20045;-81
2023/03/08 05:01:49;;;;;;;23.98;10.85;;;-1.10;99.90;;;-2.97;100.00;99027.22;4984961;28;20497;-81
2023/03/08 05:04:15;;;;;;;19.23;9.90;;;-1.20;99.90;;;-2.93;100.00;99028.53;4984576;28;20041;-79
2023/03/08 05:06:41;;;;;;;17.70;9.75;;;-1.10;99.90;;;-2.96;100.00;99016.41;5004530;28;20125;-79
2023/03/08 05:09:09;;;;;;;20.33;9.23;;;-1.10;99.90;;;-2.85;100.00;99033.91;5005178;28;20027;-80
2023/03/08 05:11:37;;;;;;;18.27;9.05;;;-1.10;99.90;;;-2.83;100.00;99029.22;4989131;28;20028;-79
2023/03/08 05:14:03;;;;;;;17.75;8.98;;;-1.10;99.90;;;-2.85;100.00;99033.91;5006688;28;20129;-79
2023/03/08 05:16:29;;;;;;;18.35;8.50;;;-1.00;99.90;;;-2.89;100.00;99021.91;4987635;28;20038;-79
2023/03/08 05:18:55;;;;;;;16.23;8.18;;;-1.00;99.90;;;-2.82;100.00;99022.88;4986417;28;20026;-78
2023/03/08 05:21:24;;;;;;;17.05;8.98;;;-1.00;99.90;;;-2.78;100.00;99034.88;4986260;28;20030;-79
2023/03/08 05:23:59;;;;;;;13.40;7.10;;;-1.00;99.90;;;-2.83;100.00;99036.38;4987675;28;20402;-80
2023/03/08 05:26:27;;;;;;;18.30;7.90;;;-1.00;99.90;;;-2.78;100.00;99037.53;5001405;28;20041;-79
2023/03/08 05:28:53;;;;;;;14.07;7.60;;;-1.00;99.90;;;-2.80;100.00;99031.53;4988168;28;20121;-79
2023/03/08 05:31:23;;;;;;;16.10;7.25;;;-1.00;99.90;;;-2.89;100.00;99013.88;4967188;28;20050;-80
2023/03/08 05:33:52;;;;;;;13.52;7.45;;;-1.10;99.90;;;-2.93;100.00;99020.53;5004931;28;20049;-80
2023/03/08 05:36:25;;;;;;;16.75;7.55;;;-1.10;99.90;;;-3.01;100.00;99020.56;4988656;28;20033;-80
2023/03/08 05:38:55;;;;;;;17.00;7.72;;;-1.20;99.90;;;-3.09;100.00;99016.91;4984237;28;20146;-80
2023/03/08 05:41:26;;;;;;;13.30;6.60;;;-1.30;99.90;;;-3.16;100.00;99012.41;4985630;28;20035;-80
2023/03/08 05:43:53;;;;;;;14.40;6.93;;;-1.40;99.90;;;-3.24;100.00;99002.56;4989464;28;20136;-80
2023/03/08 05:46:20;;;;;;;17.08;7.28;;;-1.40;99.90;;;-3.16;100.00;99010.59;4988763;28;20039;-76
2023/03/08 05:48:47;;;;;;;13.90;7.47;;;-1.40;99.90;;;-3.15;100.00;99000.72;4988746;28;20136;-77
2023/03/08 05:51:17;;;;;;;14.75;7.55;;;-1.40;99.90;;;-3.16;100.00;98991.91;4989258;28;20039;-77
2023/03/08 05:53:45;;;;;;;14.95;6.63;;;-1.30;99.90;;;-3.18;100.00;98991.25;4989048;28;20034;-76
2023/03/08 05:56:15;;;;;;;17.27;7.22;;;-1.30;99.90;;;-3.21;100.00;99003.06;5005153;28;20038;-76
2023/03/08 05:58:47;;;;;;;15.20;7.25;;;-1.40;99.90;;;-3.13;100.00;98988.06;4987877;28;20501;-75
2023/03/08 06:01:20;;;;;;;17.20;6.80;;;-1.40;99.90;;;-3.09;100.00;98992.91;4987690;28;20042;-77
2023/03/08 06:03:50;;;;;;;18.73;7.90;;;-1.30;99.90;;;-3.12;100.00;98985.22;4987798;28;20035;-77
2023/03/08 06:06:19;;;;;;;23.17;8.77;;;-1.30;99.90;;;-3.08;100.00;98986.56;4988911;28;20038;-78
2023/03/08 06:08:47;;;;;;;16.90;7.45;;;-1.30;99.90;;;-3.01;100.00;99000.06;4988822;28;20416;-77
2023/03/08 06:11:13;;;;;;;16.00;7.35;;;-1.30;99.90;;;-3.05;100.00;98991.56;4983809;28;20097;-76
2023/03/08 06:13:41;;;;;;;22.30;8.52;;;-1.30;99.90;;;-3.08;100.00;98991.03;5015206;28;20427;-77
2023/03/08 06:16:08;;;;;;;23.17;8.77;;;-1.30;99.90;;;-3.05;100.00;98996.03;5000034;28;20034;-76
2023/03/08 06:18:39;;;;;;;18.33;7.25;;;-1.30;99.90;;;-2.99;100.00;99000.72;5013383;28;20060;-75
2023/03/08 06:21:12;;;;;;;17.17;7.22;;;-1.20;99.90;;;-2.93;100.00;99005.38;5013734;28;20026;-77
2023/03/08 06:23:39;;;;;;;15.65;6.93;;;-1.10;99.90;;;-2.81;100.00;99007.69;5016342;28;20038;-80
2023/03/08 06:26:07;;;;;;;13.05;6.15;;;-1.10;99.90;;;-2.69;100.00;99018.84;4980848;28;20030;-79
2023/03/08 06:28:39;;;;;;;15.02;6.40;;;-1.00;99.90;;;-2.67;100.00;99011.47;5001878;28;20405;-78
2023/03/08 06:31:07;;;;;;;15.55;7.72;;;-0.90;99.90;;;-2.55;100.00;99017.28;4994954;28;20470;-77
2023/03/08 06:33:34;;;;;;;15.77;7.03;;;-0.90;99.90;;;-2.42;100.00;99016.75;4970318;28;20482;-77
2023/03/08 06:36:10;;;;;;;11.98;6.38;;;-0.70;99.90;;;-2.35;100.00;99012.41;4992186;28;20121;-77
2023/03/08 06:38:38;;;;;;;10.80;6.05;;;-0.60;99.90;;;-2.25;100.00;99007.66;4991591;28;20103;-77
2023/03/08 06:41:06;;;;;;;11.23;5.97;;;-0.60;99.90;;;-2.20;100.00;99002.63;5007961;28;20113;-78
2023/03/08 06:43:32;;;;;;;11.55;6.25;;;-0.50;99.90;;;-2.01;100.00;99016.59;4993057;28;20030;-80
2023/03/08 06:46:05;;;;;;;13.32;6.80;;;-0.40;99.90;;;-2.00;100.00;99020.91;4990694;28;20096;-80
2023/03/08 06:48:33;;;;;;;11.55;6.00;;;-0.30;99.90;;;-1.89;100.00;99022.38;4977560;28;20522;-79
2023/03/08 06:50:58;;;;;;;11.45;5.75;;;-0.20;99.90;;;-1.86;100.00;99014.00;4991869;28;20026;-80
2023/03/08 06:53:24;;;;;;;13.02;6.60;;;-0.20;99.90;;;-1.84;100.00;99014.66;5008636;28;20121;-80
2023/03/08 06:56:01;;;;;;;11.20;6.07;;;-0.10;99.90;;;-1.83;100.00;99010.97;4976827;28;20041;-80
2023/03/08 06:58:29;;;;;;;13.30;6.30;;;0.00;99.90;;;-1.72;100.00;99004.38;4993273;28;20139;-81
2023/03/08 07:00:55;;;;;;;10.15;5.63;;;0.10;99.90;;;-1.70;100.00;98997.00;4990387;28;20171;-77
2023/03/08 07:03:21;;;;;;;10.90;5.90;;;0.10;99.90;;;-1.57;100.00;99004.44;5008539;28;20436;-77
2023/03/08 07:05:47;;;;;;;9.30;5.78;;;0.10;99.90;;;-1.50;100.00;99007.25;4992060;28;20034;-77
2023/03/08 07:08:13;;;;;;;11.18;5.97;;;0.20;99.90;;;-1.49;100.00;99001.69;4992855;28;20093;-77
2023/03/08 07:10:39;;;;;;;12.70;6.20;;;0.30;99.90;;;-1.38;100.00;99007.66;4989067;28;20125;-80
2023/03/08 07:13:05;;;;;;;11.48;5.78;;;0.30;99.90;;;-1.31;100.00;99016.63;4990766;28;20117;-78
2023/03/08 07:15:31;;;;;;;9.48;5.32;;;0.40;99.90;;;-1.29;100.00;99008.44;4992917;28;20034;-80
2023/03/08 07:17:57;;;;;;;12.23;5.90;;;0.40;99.90;;;-1.27;100.00;99009.09;4992885;28;20473;-80
2023/03/08 07:20:26;;;;;;;9.98;5.55;;;0.50;99.90;;;-1.27;100.00;98993.03;4975044;28;20045;-82
2023/03/08 07:22:53;;;;;;;9.32;5.60;;;0.50;99.90;;;-1.27;100.00;98993.03;4976750;28;20394;-80
2023/03/08 07:25:20;;;;;;;10.48;6.50;;;0.60;99.90;;;-1.11;100.00;98992.84;4992421;28;20678;-79
2023/03/08 07:27:46;;;;;;;14.15;6.82;;;0.60;99.90;;;-1.04;100.00;98987.63;4989133;28;20089;-80
2023/03/08 07:30:14;;;;;;;13.70;6.53;;;0.70;99.90;;;-0.96;100.00;98981.34;4991111;28;20034;-81
2023/03/08 07:32:41;;;;;;;11.93;6.85;;;0.70;99.90;;;-0.92;100.00;98972.78;4986180;28;20137;-81
2023/03/08 07:35:10;;;;;;;11.88;6.53;;;0.80;99.90;;;-0.83;100.00;98972.69;4990741;28;20434;-82
2023/03/08 07:37:36;;;;;;;12.07;6.40;;;0.90;99.90;;;-0.69;100.00;98973.72;4986801;28;20109;-80
2023/03/08 07:40:03;;;;;;;15.30;6.45;;;1.00;99.90;;;-0.58;100.00;98973.25;4994973;28;20122;-80
2023/03/08 07:42:30;;;;;;;13.77;7.22;;;1.10;99.90;;;-0.53;100.00;98961.97;4991881;28;20050;-81
2023/03/08 07:45:00;;;;;;;12.20;7.18;;;1.20;99.90;;;-0.46;100.00;98961.06;4988460;28;20441;-82
2023/03/08 07:47:26;;;;;;;11.60;7.20;;;1.30;99.90;;;-0.35;100.00;98953.53;4990995;28;20053;-81
2023/03/08 07:49:52;;;;;;;12.93;7.38;;;1.40;99.90;;;-0.21;100.00;98968.78;4992006;28;20409;-82
2023/03/08 07:52:18;;;;;;;13.48;7.45;;;1.50;99.90;;;-0.28;100.00;98961.66;4991509;28;20034;-82
2023/03/08 07:54:43;;;;;;;12.25;7.50;;;1.50;99.90;;;-0.36;100.00;98965.28;4992981;28;20048;-81
2023/03/08 07:57:14;;;;;;;14.75;7.82;;;1.50;99.90;;;-0.41;100.00;98960.47;4992545;28;20042;-87
2023/03/08 07:59:41;;;;;;;17.25;8.60;;;1.50;99.90;;;-0.42;100.00;98958.00;4978808;28;20125;-84
2023/03/08 08:02:12;;;;;;;15.20;8.23;;;1.40;99.90;;;-0.37;100.00;98945.72;4992591;28;20049;-84
2023/03/08 08:04:38;;;;;;;15.43;8.43;;;1.50;99.90;;;-0.26;100.00;98954.28;4992703;28;20068;-84
2023/03/08 08:07:06;;;;;;;15.15;8.63;;;1.50;99.90;;;-0.26;100.00;98960.47;4992901;28;20034;-87
2023/03/08 08:09:32;;;;;;;13.50;8.00;;;1.60;99.90;;;-0.19;100.00;98952.50;4974645;28;20482;-87
2023/03/08 08:11:58;;;;;;;14.13;8.57;;;1.60;99.90;;;-0.05;100.00;98950.78;4993867;28;20038;-89
2023/03/08 08:14:24;;;;;;;17.73;8.80;;;1.70;99.90;;;-0.06;100.00;98947.28;4994406;28;20038;-78
2023/03/08 08:16:49;;;;;;;14.75;8.32;;;1.80;99.90;;;0.09;100.00;98957.13;4992765;28;20038;-83
2023/03/08 08:19:16;;;;;;;15.00;8.93;;;1.80;99.90;;;0.01;100.00;98950.06;4992444;28;20049;-85
2023/03/08 08:21:41;;;;;;;16.17;8.60;;;1.90;99.90;;;-0.01;100.00;98954.75;4991597;28;20113;-81
2023/03/08 08:24:07;;;;;;;15.32;8.85;;;1.90;99.90;;;0.15;100.00;98953.72;4989506;28;20050;-82
2023/03/08 08:26:33;;;;;;;17.17;9.40;;;2.00;99.90;;;0.14;100.00;98960.09;4989501;28;20074;-79
2023/03/08 08:28:59;;;;;;;17.77;9.15;;;2.00;99.90;;;0.04;100.00;98952.34;4991403;28;20069;-81
2023/03/08 08:31:29;;;;;;;20.05;9.88;;;2.00;99.90;;;0.07;100.00;98964.53;4991833;28;20066;-84
2023/03/08 08:33:57;;;;;;;21.52;10.05;;;2.00;99.90;;;-0.05;100.00;98961.53;5004197;28;20097;-80
2023/03/08 08:36:23;;;;;;;17.88;10.10;;;1.90;99.90;;;-0.10;100.00;98955.91;4991428;28;20453;-80
2023/03/08 08:38:49;;;;;;;20.02;10.88;;;1.80;99.90;;;-0.01;100.00;98958.28;4991490;28;20474;-81
2023/03/08 08:41:18;;;;;;;19.58;10.57;;;1.80;99.90;;;0.11;100.00;98947.88;5005711;28;20210;-80
2023/03/08 08:43:45;;;;;;;21.13;11.20;;;1.90;99.90;;;-0.05;100.00;98950.78;4987502;28;20042;-79
2023/03/08 08:46:12;;;;;;;19.05;10.35;;;1.90;99.90;;;0.08;100.00;98948.28;4989620;28;20030;-82
2023/03/08 08:48:38;;;;;;;20.85;11.30;;;1.90;99.90;;;0.28;100.00;98943.09;4992154;28;20039;-82
2023/03/08 08:51:11;;;;;;;15.75;9.65;;;2.10;99.90;;;0.13;100.00;98948.53;4990666;28;20130;-80
2023/03/08 08:53:37;;;;;;;21.83;10.88;;;2.00;99.90;;;0.32;100.00;98942.72;4991229;28;20050;-80
2023/03/08 08:56:19;;;;;;;19.15;10.45;;;2.10;99.90;;;0.30;100.00;98942.91;4991162;28;20093;-79
2023/03/08 08:58:47;;;;;;;20.25;11.05;;;2.20;99.90;;;0.32;100.00;98940.88;4989463;28;20038;-80
2023/03/08 09:01:23;;;;;;;18.30;10.45;;;2.20;99.90;;;0.36;100.00;98939.47;4990785;28;20050;-79
2023/03/08 09:03:49;;;;;;;20.02;10.73;;;2.20;99.90;;;0.54;100.00;98946.25;4990497;28;20453;-79
2023/03/08 09:06:18;;;;;;;22.50;11.05;;;2.30;99.90;;;0.46;100.00;98935.63;4992370;28;20493;-82
2023/03/08 09:08:48;;;;;;;22.73;10.70;;;2.40;99.90;;;0.50;100.00;98929.69;4991502;28;20066;-80
2023/03/08 09:11:14;;;;;;;19.13;9.48;;;2.40;99.90;;;0.52;100.00;98927.63;4996518;28;20041;-80
2023/03/08 09:13:41;;;;;;;17.23;9.90;;;2.40;99.90;;;0.49;100.00;98929.84;4990527;28;20042;-81
2023/03/08 09:16:32;;;;;;;18.25;10.60;;;2.40;99.90;;;0.56;100.00;98923.53;4989151;28;20045;-80
2023/03/08 09:19:02;;;;;;;19.17;10.75;;;2.40;99.90;;;0.60;100.00;98902.50;4987838;28;20027;-79
2023/03/08 09:21:30;;;;;;;18.77;10.80;;;2.50;99.90;;;0.55;100.00;98904.97;4973512;28;20045;-80
2023/03/08 09:24:00;;;;;;;18.83;10.50;;;2.40;99.90;;;0.63;100.00;98901.28;4984611;28;20042;-80
2023/03/08 09:26:29;;;;;;;19.00;10.80;;;2.50;99.90;;;0.67;100.00;98907.94;4989222;28;20108;-80
2023/03/08 09:28:56;;;;;;;17.70;10.20;;;2.50;99.90;;;0.71;100.00;98893.91;4988057;28;20034;-79
2023/03/08 09:31:22;;;;;;;19.58;11.05;;;2.60;99.90;;;0.53;100.00;98882.81;4987339;28;20037;-78
2023/03/08 09:33:53;;;;;;;20.13;11.68;;;2.60;99.90;;;0.81;100.00;98898.94;4990639;28;20374;-79
2023/03/08 09:36:19;;;;;;;19.60;11.02;;;2.70;99.90;;;0.85;100.00;98884.09;4984468;28;20061;-77
2023/03/08 09:38:51;;;;;;;18.95;11.50;;;2.70;99.90;;;0.98;100.00;98871.78;4989574;28;20114;-76
2023/03/08 09:41:24;;;;;;;22.85;11.02;;;2.80;99.90;;;0.78;100.00;98877.00;4989790;28;20118;-76
2023/03/08 09:44:22;;;;;;;21.85;11.77;;;2.80;99.90;;;0.76;100.00;98879.06;4988807;28;20038;-76
2023/03/08 09:47:04;;;;;;;20.67;11.70;;;2.70;99.90;;;0.76;100.00;98871.00;4970523;28;20053;-76
2023/03/08 09:49:35;;;;;;;22.88;12.40;;;2.60;99.90;;;0.77;100.00;98865.47;5008385;28;20061;-75
2023/03/08 09:52:15;;;;;;;20.38;11.57;;;2.70;99.90;;;0.78;100.00;98868.97;4993640;28;20038;-78
2023/03/08 09:54:41;;;;;;;22.50;11.38;;;2.70;99.90;;;0.83;100.00;98864.66;4990149;28;20038;-77
2023/03/08 09:57:22;;;;;;;22.13;11.88;;;2.70;99.90;;;0.89;100.00;98855.00;4993736;28;20351;-76
2023/03/08 10:00:10;;;;;;;20.73;12.07;;;2.70;99.90;;;1.08;100.00;98852.63;4981893;28;20486;-78
2023/03/08 10:03:33;;;;;;;25.05;12.55;;;2.90;99.90;;;1.29;100.00;98847.13;4990067;28;20046;-77
2023/03/08 10:06:20;;;;;;;24.15;13.13;;;3.00;99.90;;;1.33;100.00;98842.19;4992188;28;20478;-77
2023/03/08 10:09:00;;;;;;;24.30;13.65;;;3.10;99.90;;;1.46;100.00;98832.50;4993631;28;20448;-78
2023/03/08 10:11:40;;;;;;;24.10;12.80;;;3.30;99.90;;;1.54;100.00;98838.53;4993766;28;20409;-78
2023/03/08 10:14:21;;;;;;;25.73;13.68;;;3.40;99.90;;;1.50;100.00;98831.91;5000232;28;20054;-79
2023/03/08 10:16:57;;;;;;;22.73;12.95;;;3.40;99.90;;;1.33;100.00;98817.19;4992935;28;20037;-79
2023/03/08 10:19:36;;;;;;;24.48;13.43;;;3.30;99.90;;;1.16;100.00;98822.91;4993955;28;20041;-79